createdAt,value
2019-03-28T00:00:52.732Z,106.25
2019-03-28T00:03:49.311Z,118.25
2019-03-28T00:06:45.977Z,106.83
2019-03-28T00:09:42.816Z,104.50
2019-03-28T00:12:40.107Z,96.47
2019-03-28T00:15:36.869Z,96.40
2019-03-28T00:18:33.427Z,82.82
2019-03-28T00:21:30.202Z,82.92
2019-03-28T00:24:40.692Z,85.05
2019-03-28T00:27:37.734Z,80.07
2019-03-28T00:30:34.987Z,63.63
2019-03-28T00:33:31.256Z,74.42
2019-03-28T00:36:29.300Z,57.38
2019-03-28T00:39:26.674Z,62.85
2019-03-28T00:42:24.283Z,71.65
2019-03-28T00:45:21.391Z,67.42
2019-03-28T00:48:18.265Z,67.90
2019-03-28T00:51:15.749Z,72.22
2019-03-28T00:54:15.518Z,75.45
2019-03-28T00:57:12.634Z,78.75
2019-03-28T01:00:10.220Z,74.10
2019-03-28T01:03:06.987Z,83.22
2019-03-28T01:06:04.025Z,87.57
2019-03-28T01:09:03.966Z,106.80
2019-03-28T01:11:59.017Z,96.12
2019-03-28T01:14:57.697Z,106.78
2019-03-28T01:17:55.322Z,95.28
2019-03-28T01:20:52.706Z,85.60
2019-03-28T01:23:49.894Z,79.53
2019-03-28T01:26:56.605Z,70.03
2019-03-28T01:29:43.389Z,71.75
2019-03-28T01:32:40.223Z,93.52
2019-03-28T01:35:36.974Z,76.70
2019-03-28T01:38:33.559Z,96.50
2019-03-28T01:41:30.059Z,73.50
2019-03-28T01:44:26.996Z,88.15
2019-03-28T01:47:23.125Z,93.75
2019-03-28T01:50:19.528Z,102.80
2019-03-28T01:53:16.292Z,98.30
2019-03-28T01:56:12.929Z,91.32
2019-03-28T01:59:09.986Z,81.40
2019-03-28T02:02:06.410Z,83.97
2019-03-28T02:05:03.320Z,74.22
2019-03-28T02:08:02.589Z,97.00
2019-03-28T02:10:57.418Z,86.63
2019-03-28T02:13:55.947Z,71.12
2019-03-28T02:16:52.877Z,97.33
2019-03-28T02:19:49.770Z,82.78
2019-03-28T02:22:46.306Z,89.55
2019-03-28T02:25:43.403Z,81.02
2019-03-28T02:28:39.350Z,87.60
2019-03-28T02:31:35.826Z,98.12
2019-03-28T02:34:32.650Z,73.65
2019-03-28T02:37:29.211Z,82.78
2019-03-28T02:40:27.860Z,67.32
2019-03-28T02:43:25.023Z,75.32
2019-03-28T02:46:22.582Z,94.77
2019-03-28T02:49:19.729Z,99.45
2019-03-28T02:52:15.982Z,112.12
2019-03-28T02:55:12.718Z,116.08
2019-03-28T02:58:10.771Z,105.97
2019-03-28T03:01:06.494Z,114.65
2019-03-28T03:04:03.207Z,94.95
2019-03-28T03:07:00.294Z,83.10
2019-03-28T03:09:56.989Z,89.97
2019-03-28T03:12:54.141Z,107.63
2019-03-28T03:15:54.973Z,75.10
2019-03-28T03:18:51.552Z,92.67
2019-03-28T03:21:48.377Z,82.33
2019-03-28T03:24:44.957Z,67.27
2019-03-28T03:27:57.161Z,65.12
2019-03-28T03:30:39.705Z,98.22
2019-03-28T03:33:37.734Z,73.65
2019-03-28T03:36:35.508Z,74.85
2019-03-28T03:39:33.080Z,82.22
2019-03-28T03:42:30.367Z,73.30
2019-03-28T03:45:28.738Z,79.47
2019-03-28T03:48:25.572Z,61.92
2019-03-28T03:51:22.655Z,81.78
2019-03-28T03:54:19.988Z,72.27
2019-03-28T03:57:17.415Z,76.33
2019-03-28T04:00:14.377Z,75.12
2019-03-28T04:03:11.168Z,71.77
2019-03-28T04:06:08.387Z,97.35
2019-03-28T04:09:05.590Z,64.20
2019-03-28T04:12:02.638Z,63.05
2019-03-28T04:14:59.869Z,71.10
2019-03-28T04:17:56.829Z,57.23
2019-03-28T04:20:55.975Z,58.50
2019-03-28T04:23:55.768Z,59.98
2019-03-28T04:26:53.103Z,66.30
2019-03-28T04:29:51.498Z,59.38
2019-03-28T04:32:48.345Z,58.65
2019-03-28T04:35:45.077Z,58.25
2019-03-28T04:38:44.376Z,57.85
2019-03-28T04:41:41.561Z,44.83
2019-03-28T04:44:40.235Z,63.75
2019-03-28T04:47:37.100Z,47.45
2019-03-28T04:50:33.652Z,53.48
2019-03-28T04:53:32.731Z,60.88
2019-03-28T04:56:33.044Z,50.17
2019-03-28T04:59:30.686Z,48.33
2019-03-28T05:02:27.660Z,53.95
2019-03-28T05:05:24.437Z,44.30
2019-03-28T05:08:23.592Z,43.33
2019-03-28T05:11:21.364Z,44.03
2019-03-28T05:14:19.265Z,47.55
2019-03-28T05:17:19.133Z,51.77
2019-03-28T05:20:16.840Z,55.43
2019-03-28T05:23:14.325Z,43.75
2019-03-28T05:26:16.546Z,47.48
2019-03-28T05:29:50.993Z,53.58
2019-03-28T05:33:50.773Z,38.83
2019-03-28T05:37:37.581Z,56.02
2019-03-28T05:45:58.384Z,51.33
2019-03-28T05:49:38.260Z,49.27
2019-03-28T05:53:15.534Z,37.25
2019-03-28T05:56:15.937Z,35.52
2019-03-28T05:59:26.986Z,43.40
2019-03-28T06:02:30.541Z,37.10
2019-03-28T06:05:31.458Z,43.70
2019-03-28T06:08:44.793Z,49.20
2019-03-28T06:12:44.786Z,42.05
2019-03-28T06:15:18.245Z,49.40
2019-03-28T06:18:57.566Z,45.58
2019-03-28T06:22:13.832Z,49.23
2019-03-28T06:25:14.286Z,44.05
2019-03-28T06:28:12.207Z,39.40
2019-03-28T06:31:14.015Z,41.28
2019-03-28T06:34:18.361Z,42.65
2019-03-28T06:37:18.576Z,52.95
2019-03-28T06:40:23.589Z,46.85
2019-03-28T06:47:15.840Z,42.03
2019-03-28T06:50:20.506Z,39.45
2019-03-28T06:53:18.572Z,47.88
2019-03-28T06:56:17.320Z,62.38
2019-03-28T06:59:14.284Z,78.57
2019-03-28T07:02:10.926Z,65.20
2019-03-28T07:05:08.968Z,65.65
2019-03-28T07:08:06.391Z,67.22
2019-03-28T07:11:03.632Z,57.58
2019-03-28T07:14:03.049Z,61.75
2019-03-28T07:17:00.552Z,66.82
2019-03-28T07:20:01.039Z,67.25
2019-03-28T07:27:27.412Z,76.37
2019-03-28T07:30:52.075Z,61.20
2019-03-28T07:33:50.710Z,62.65
2019-03-28T07:36:47.805Z,58.52
2019-03-28T07:39:44.425Z,60.98
2019-03-28T07:42:41.402Z,55.80
2019-03-28T07:46:15.911Z,59.13
2019-03-28T07:49:10.564Z,45.00
2019-03-28T07:52:08.002Z,44.27
2019-03-28T07:55:06.285Z,46.10
2019-03-28T08:05:17.626Z,25.68
2019-03-28T08:08:19.650Z,25.40
2019-03-28T08:11:20.741Z,28.45
2019-03-28T08:14:21.899Z,26.60
2019-03-28T08:17:23.163Z,29.77
2019-03-28T08:20:26.889Z,47.43
2019-03-28T08:23:28.979Z,32.63
2019-03-28T08:26:30.192Z,34.10
2019-03-28T08:29:26.813Z,36.10
2019-03-28T08:32:27.009Z,36.68
2019-03-28T08:35:25.530Z,32.20
2019-03-28T08:38:23.491Z,38.85
2019-03-28T08:41:21.452Z,34.20
2019-03-28T08:44:22.629Z,36.83
2019-03-28T08:47:18.179Z,39.45
2019-03-28T08:50:17.029Z,35.45
2019-03-28T08:53:14.306Z,47.13
2019-03-28T08:56:12.156Z,31.33
2019-03-28T08:59:09.945Z,32.67
2019-03-28T09:02:08.226Z,40.03
2019-03-28T09:05:10.139Z,31.85
2019-03-28T09:08:12.619Z,34.25
2019-03-28T09:11:13.109Z,38.23
2019-03-28T09:14:11.471Z,33.45
2019-03-28T09:17:12.376Z,30.05
2019-03-28T09:20:13.995Z,37.55
2019-03-28T09:23:14.021Z,36.03
2019-03-28T09:26:14.718Z,52.50
2019-03-28T09:29:15.230Z,34.90
2019-03-28T09:32:16.058Z,29.60
2019-03-28T09:35:20.943Z,27.67
2019-03-28T09:38:20.762Z,36.60
2019-03-28T09:41:23.348Z,27.40
2019-03-28T09:44:26.164Z,25.55
2019-03-28T09:47:30.408Z,30.32
2019-03-28T09:50:31.793Z,30.50
2019-03-28T09:53:31.816Z,33.75
2019-03-28T09:56:32.195Z,35.63
2019-03-28T09:59:38.384Z,27.85
2019-03-28T10:02:39.607Z,33.55
2019-03-28T10:05:40.335Z,29.63
2019-03-28T10:08:54.370Z,32.10
2019-03-28T10:12:44.139Z,36.15
2019-03-28T10:15:50.049Z,30.05
2019-03-28T10:19:16.998Z,31.35
2019-03-28T10:22:40.148Z,35.92
2019-03-28T10:29:54.163Z,22.22
2019-03-28T10:33:04.971Z,45.17
2019-03-28T10:36:04.335Z,42.03
2019-03-28T10:39:40.504Z,43.48
2019-03-28T10:42:41.510Z,30.88
2019-03-28T10:46:08.266Z,40.67
2019-03-28T10:49:12.596Z,41.75
2019-03-28T10:52:27.259Z,37.25
2019-03-28T10:56:54.695Z,32.30
2019-03-28T11:07:47.460Z,35.15
2019-03-28T11:10:48.401Z,33.75
2019-03-28T11:13:50.055Z,30.77
2019-03-28T11:16:54.186Z,31.75
2019-03-28T11:20:02.882Z,40.35
2019-03-28T11:23:08.958Z,31.68
2019-03-28T11:26:33.654Z,32.13
2019-03-28T11:30:35.441Z,33.02
2019-03-28T11:41:56.212Z,35.60
2019-03-28T11:46:07.494Z,42.50
2019-03-28T11:54:07.072Z,38.55
2019-03-28T12:02:18.627Z,36.95
2019-03-28T12:05:05.272Z,42.83
2019-03-28T12:08:06.667Z,33.25
2019-03-28T12:11:03.575Z,43.68
2019-03-28T12:14:01.688Z,38.28
2019-03-28T12:17:00.070Z,43.52
2019-03-28T12:19:57.679Z,34.23
2019-03-28T12:22:56.068Z,40.00
2019-03-28T12:25:51.523Z,39.18
2019-03-28T12:28:48.302Z,50.75
2019-03-28T12:31:44.807Z,58.73
2019-03-28T12:34:41.523Z,65.60
2019-03-28T12:37:37.890Z,66.82
2019-03-28T12:40:35.218Z,76.42
2019-03-28T12:43:32.237Z,65.35
2019-03-28T12:46:29.135Z,73.97
2019-03-28T12:49:26.006Z,64.47
2019-03-28T12:52:22.548Z,64.85
2019-03-28T12:55:20.445Z,59.75
2019-03-28T12:58:18.638Z,61.73
2019-03-28T13:01:16.031Z,59.38
2019-03-28T13:04:12.534Z,59.27
2019-03-28T13:07:10.462Z,62.53
2019-03-28T13:10:08.120Z,62.62
2019-03-28T13:13:04.915Z,61.70
2019-03-28T13:16:01.803Z,66.20
2019-03-28T13:18:59.838Z,89.42
2019-03-28T13:21:57.757Z,93.67
2019-03-28T13:24:55.679Z,93.30
2019-03-28T13:27:55.051Z,118.00
2019-03-28T13:30:56.482Z,153.42
2019-03-28T13:34:02.147Z,136.52
2019-03-28T13:37:11.150Z,126.70
2019-03-28T13:40:08.410Z,137.40
2019-03-28T13:43:05.564Z,124.62
2019-03-28T13:46:02.985Z,118.05
2019-03-28T13:49:00.876Z,111.68
2019-03-28T13:51:57.630Z,92.75
2019-03-28T13:54:54.144Z,143.70
2019-03-28T13:57:52.231Z,138.50
2019-03-28T14:00:48.167Z,124.18
2019-03-28T14:03:48.070Z,122.00
2019-03-28T14:06:45.690Z,122.98
2019-03-28T14:09:45.821Z,161.37
2019-03-28T14:12:42.529Z,151.72
2019-03-28T14:15:38.744Z,181.55
2019-03-28T14:18:35.453Z,147.72
2019-03-28T14:21:32.845Z,156.85
2019-03-28T14:24:29.685Z,108.35
2019-03-28T14:27:27.097Z,121.07
2019-03-28T14:30:24.099Z,127.38
2019-03-28T14:33:23.299Z,117.82
2019-03-28T14:36:20.378Z,112.45
2019-03-28T14:39:17.479Z,113.15
2019-03-28T14:42:15.919Z,106.97
2019-03-28T14:45:13.759Z,120.20
2019-03-28T14:48:10.351Z,107.67
2019-03-28T14:51:08.123Z,129.65
2019-03-28T14:54:04.977Z,130.65
2019-03-28T14:57:02.143Z,122.72
2019-03-28T15:00:00.380Z,117.00
2019-03-28T15:02:58.134Z,118.05
2019-03-28T15:05:55.299Z,148.97
2019-03-28T15:08:53.737Z,132.22
2019-03-28T15:11:50.150Z,119.28
2019-03-28T15:14:46.175Z,115.17
2019-03-28T15:17:44.894Z,112.37
2019-03-28T15:20:40.138Z,117.57
2019-03-28T15:23:36.326Z,169.20
2019-03-28T15:26:32.845Z,131.40
2019-03-28T15:29:29.456Z,95.90
2019-03-28T15:32:28.945Z,121.95
2019-03-28T15:35:25.801Z,108.30
2019-03-28T15:38:21.950Z,104.72
2019-03-28T15:41:18.639Z,93.95
2019-03-28T15:44:15.305Z,93.97
2019-03-28T15:47:11.717Z,80.32
2019-03-28T15:50:08.769Z,73.90
2019-03-28T15:53:06.110Z,76.33
2019-03-28T15:56:03.235Z,79.27
2019-03-28T15:59:01.180Z,75.83
2019-03-28T16:01:59.941Z,90.17
2019-03-28T16:04:56.031Z,73.67
2019-03-28T16:07:52.835Z,75.80
2019-03-28T16:10:49.517Z,87.35
2019-03-28T16:13:47.292Z,87.90
2019-03-28T16:16:43.420Z,67.47
2019-03-28T16:19:40.288Z,69.25
2019-03-28T16:22:38.038Z,89.42
2019-03-28T16:25:37.509Z,93.85
2019-03-28T16:28:33.481Z,77.03
2019-03-28T16:31:30.669Z,67.60
2019-03-28T16:34:27.772Z,68.25
2019-03-28T16:37:25.223Z,74.82
2019-03-28T16:40:22.512Z,71.67
2019-03-28T16:43:20.814Z,68.20
2019-03-28T16:46:18.229Z,66.28
2019-03-28T16:49:14.821Z,62.53
2019-03-28T16:52:13.394Z,73.07
2019-03-28T16:55:10.623Z,70.03
2019-03-28T16:58:07.182Z,67.72
2019-03-28T17:01:05.447Z,78.80
2019-03-28T17:04:03.182Z,72.78
2019-03-28T17:07:00.155Z,79.15
2019-03-28T17:09:57.691Z,70.32
2019-03-28T17:12:54.566Z,74.25
2019-03-28T17:15:51.160Z,72.45
2019-03-28T17:18:48.527Z,83.92
2019-03-28T17:21:44.933Z,79.90
2019-03-28T17:24:42.920Z,76.87
2019-03-28T17:27:39.113Z,88.35
2019-03-28T17:30:35.582Z,85.92
2019-03-28T17:33:32.426Z,66.47
2019-03-28T17:36:29.367Z,68.35
2019-03-28T17:39:26.800Z,74.42
2019-03-28T17:42:24.021Z,69.05
2019-03-28T17:45:21.333Z,103.25
2019-03-28T17:48:18.306Z,74.07
2019-03-28T17:51:15.355Z,93.05
2019-03-28T17:54:12.280Z,85.22
2019-03-28T17:57:08.824Z,95.80
2019-03-28T18:00:06.068Z,93.67
2019-03-28T18:03:08.935Z,101.05
2019-03-28T18:06:01.102Z,72.53
2019-03-28T18:08:57.629Z,82.55
2019-03-28T18:11:54.313Z,86.12
2019-03-28T18:14:51.325Z,80.70
2019-03-28T18:17:47.809Z,79.42
2019-03-28T18:20:44.551Z,89.87
2019-03-28T18:23:41.525Z,75.47
2019-03-28T18:26:38.309Z,67.70
2019-03-28T18:29:36.061Z,64.20
2019-03-28T18:32:31.778Z,75.50
2019-03-28T18:35:28.843Z,72.47
2019-03-28T18:38:26.625Z,73.37
2019-03-28T18:41:23.496Z,73.47
2019-03-28T18:44:20.394Z,75.42
2019-03-28T18:47:17.864Z,85.92
2019-03-28T18:50:15.097Z,81.17
2019-03-28T18:53:12.255Z,86.05
2019-03-28T18:56:09.913Z,65.83
2019-03-28T18:59:06.579Z,77.42
2019-03-28T19:02:03.919Z,65.60
2019-03-28T19:05:01.273Z,75.15
2019-03-28T19:07:58.341Z,78.57
2019-03-28T19:10:56.620Z,82.27
2019-03-28T19:13:53.277Z,91.37
2019-03-28T19:16:52.091Z,75.30
2019-03-28T19:19:47.298Z,82.55
2019-03-28T19:22:43.690Z,89.87
2019-03-28T19:25:40.138Z,82.45
2019-03-28T19:28:39.867Z,95.28
2019-03-28T19:31:36.592Z,77.37
2019-03-28T19:34:33.052Z,72.10
2019-03-28T19:37:29.876Z,76.00
2019-03-28T19:40:26.968Z,102.78
2019-03-28T19:43:24.191Z,90.53
2019-03-28T19:46:20.528Z,95.92
2019-03-28T19:49:17.608Z,79.27
2019-03-28T19:52:14.665Z,85.22
2019-03-28T19:55:11.917Z,86.70
2019-03-28T19:58:09.427Z,78.97
2019-03-28T20:01:06.590Z,73.30
2019-03-28T20:04:03.041Z,68.00
2019-03-28T20:07:00.779Z,71.35
2019-03-28T20:09:57.605Z,75.85
2019-03-28T20:12:54.116Z,72.40
2019-03-28T20:15:53.459Z,80.30
2019-03-28T20:18:50.322Z,94.17
2019-03-28T20:21:46.760Z,112.75
2019-03-28T20:24:43.632Z,107.65
2019-03-28T20:27:40.741Z,137.62
2019-03-28T20:30:37.371Z,204.45
2019-03-28T20:33:33.860Z,322.82
2019-03-28T20:36:37.495Z,349.65
2019-03-28T20:39:27.830Z,339.65
2019-03-28T20:42:24.483Z,330.50
2019-03-28T20:45:21.541Z,312.48
2019-03-28T20:48:17.755Z,303.10
2019-03-28T20:51:14.422Z,297.77
2019-03-28T20:54:10.926Z,296.20
2019-03-28T20:57:07.679Z,292.10
2019-03-28T21:00:04.421Z,281.95
2019-03-28T21:03:03.036Z,237.42
2019-03-28T21:05:57.902Z,256.02
2019-03-28T21:08:54.030Z,234.40
2019-03-28T21:11:51.925Z,206.43
2019-03-28T21:14:48.660Z,223.47
2019-03-28T21:17:45.017Z,207.50
2019-03-28T21:20:41.409Z,201.62
2019-03-28T21:23:38.246Z,199.77
2019-03-28T21:26:35.697Z,232.40
2019-03-28T21:29:33.891Z,204.40
2019-03-28T21:32:28.986Z,240.50
2019-03-28T21:35:26.097Z,217.90
2019-03-28T21:38:23.006Z,239.75
2019-03-28T21:41:20.073Z,233.25
2019-03-28T21:44:16.609Z,198.13
2019-03-28T21:47:13.272Z,213.47
2019-03-28T21:50:10.366Z,195.75
2019-03-28T21:53:07.244Z,208.60
2019-03-28T21:56:04.137Z,207.62
2019-03-28T21:59:00.461Z,192.43
2019-03-28T22:01:57.376Z,207.32
2019-03-28T22:04:54.117Z,208.13
2019-03-28T22:07:50.726Z,228.58
2019-03-28T22:10:48.053Z,199.42
2019-03-28T22:13:44.701Z,206.23
2019-03-28T22:16:40.971Z,187.88
2019-03-28T22:19:37.647Z,200.60
2019-03-28T22:22:34.197Z,185.20
2019-03-28T22:25:31.106Z,176.93
2019-03-28T22:28:27.556Z,188.05
2019-03-28T22:31:24.731Z,180.72
2019-03-28T22:34:21.642Z,202.72
2019-03-28T22:37:18.348Z,182.37
2019-03-28T22:40:15.015Z,179.35
2019-03-28T22:43:11.360Z,179.90
2019-03-28T22:46:08.016Z,170.50
2019-03-28T22:49:05.274Z,176.78
2019-03-28T22:52:01.488Z,173.87
2019-03-28T22:54:58.413Z,172.13
2019-03-28T22:57:54.951Z,177.35
2019-03-28T23:00:52.275Z,194.87
2019-03-28T23:03:49.269Z,186.95
2019-03-28T23:06:46.398Z,184.60
2019-03-28T23:09:43.115Z,188.18
2019-03-28T23:12:39.642Z,192.47
2019-03-28T23:15:37.142Z,188.15
2019-03-28T23:18:33.145Z,165.20
2019-03-28T23:21:29.230Z,188.70
2019-03-28T23:24:25.886Z,193.22
2019-03-28T23:27:22.306Z,188.42
2019-03-28T23:30:18.626Z,187.82
2019-03-28T23:33:15.383Z,195.12
2019-03-28T23:36:12.037Z,207.18
2019-03-28T23:39:08.559Z,212.85
2019-03-28T23:42:04.699Z,219.85
2019-03-28T23:45:01.186Z,222.70
2019-03-28T23:47:57.601Z,220.80
2019-03-28T23:50:54.293Z,226.25
2019-03-28T23:53:50.983Z,290.25
2019-03-28T23:56:47.569Z,288.35
2019-03-28T23:59:43.807Z,284.02
